createdAt,value
2018-08-08T00:02:06.236Z,98106.31
2018-08-08T00:04:34.571Z,98113.37
2018-08-08T00:07:03.158Z,98112.02
2018-08-08T00:09:31.250Z,98101.28
2018-08-08T00:11:59.359Z,98089.16
2018-08-08T00:14:27.460Z,98077.66
2018-08-08T00:16:56.144Z,98063.56
2018-08-08T00:19:24.236Z,98051.27
2018-08-08T00:21:52.332Z,98039.80
2018-08-08T00:24:27.129Z,98038.39
2018-08-08T00:27:01.747Z,98035.98
2018-08-08T00:29:29.896Z,98030.33
2018-08-08T00:31:58.029Z,98031.97
2018-08-08T00:34:26.243Z,98030.80
2018-08-08T00:36:54.354Z,98030.88
2018-08-08T00:39:22.436Z,98035.72
2018-08-08T00:41:50.556Z,98023.57
2018-08-08T00:44:18.638Z,98015.89
2018-08-08T00:46:46.755Z,98016.77
2018-08-08T00:49:15.496Z,98016.02
2018-08-08T00:51:44.040Z,98024.30
2018-08-08T00:54:12.135Z,98014.61
2018-08-08T00:56:40.228Z,98021.48
2018-08-08T00:59:08.320Z,98020.42
2018-08-08T01:01:36.431Z,98026.00
2018-08-08T01:04:04.538Z,98024.80
2018-08-08T01:06:32.633Z,98022.98
2018-08-08T01:09:00.811Z,98029.45
2018-08-08T01:11:28.866Z,98022.98
2018-08-08T01:13:56.995Z,98027.91
2018-08-08T01:16:25.099Z,98024.80
2018-08-08T01:18:53.199Z,98020.17
2018-08-08T01:21:21.299Z,98018.22
2018-08-08T01:23:49.384Z,98008.65
2018-08-08T01:26:17.479Z,98025.63
2018-08-08T01:28:45.569Z,98023.28
2018-08-08T01:31:13.647Z,98033.27
2018-08-08T01:33:41.736Z,98032.25
2018-08-08T01:36:09.839Z,98030.40
2018-08-08T01:38:37.930Z,98037.80
2018-08-08T01:41:06.068Z,98040.58
2018-08-08T01:43:34.147Z,98040.47
2018-08-08T01:46:02.271Z,98046.55
2018-08-08T01:48:30.359Z,98054.56
2018-08-08T01:50:58.453Z,98056.70
2018-08-08T01:53:26.551Z,98061.02
2018-08-08T01:55:54.685Z,98064.23
2018-08-08T01:58:22.788Z,98071.81
2018-08-08T02:00:51.144Z,98075.73
2018-08-08T02:03:19.243Z,98082.28
2018-08-08T02:05:47.889Z,98089.42
2018-08-08T02:08:15.991Z,98096.78
2018-08-08T02:10:44.099Z,98095.27
2018-08-08T02:13:12.208Z,98105.24
2018-08-08T02:15:40.328Z,98112.63
2018-08-08T02:18:08.490Z,98113.53
2018-08-08T02:20:36.816Z,98109.40
2018-08-08T02:23:04.908Z,98109.10
2018-08-08T02:25:32.991Z,98110.65
2018-08-08T02:28:01.156Z,98108.77
2018-08-08T02:30:29.299Z,98110.87
2018-08-08T02:32:57.395Z,98108.59
2018-08-08T02:35:25.549Z,98097.91
2018-08-08T02:37:53.657Z,98100.28
2018-08-08T02:40:21.773Z,98095.48
2018-08-08T02:42:49.870Z,98101.27
2018-08-08T02:45:19.998Z,98101.03
2018-08-08T02:47:49.173Z,98108.59
2018-08-08T02:50:18.683Z,98112.39
2018-08-08T02:52:46.813Z,98116.80
2018-08-08T02:55:15.173Z,98127.40
2018-08-08T02:57:44.387Z,98122.86
2018-08-08T03:00:14.372Z,98116.93
2018-08-08T03:02:42.467Z,98120.44
2018-08-08T03:05:11.331Z,98123.27
2018-08-08T03:07:39.799Z,98129.31
2018-08-08T03:10:11.586Z,98125.02
2018-08-08T03:12:39.771Z,98121.48
2018-08-08T03:15:09.971Z,98126.36
2018-08-08T03:17:38.170Z,98135.03
2018-08-08T03:20:07.372Z,98140.80
2018-08-08T03:22:35.452Z,98130.34
2018-08-08T03:25:08.163Z,98127.61
2018-08-08T03:27:36.304Z,98129.08
2018-08-08T03:30:05.855Z,98127.81
2018-08-08T03:32:34.282Z,98134.28
2018-08-08T03:35:02.403Z,98129.28
2018-08-08T03:37:30.667Z,98141.84
2018-08-08T03:39:58.757Z,98155.89
2018-08-08T03:42:26.865Z,98156.24
2018-08-08T03:44:54.958Z,98159.34
2018-08-08T03:47:23.054Z,98168.33
2018-08-08T03:49:51.315Z,98187.01
2018-08-08T03:52:19.394Z,98195.81
2018-08-08T03:54:47.495Z,98218.43
2018-08-08T03:57:15.667Z,98235.78
2018-08-08T03:59:43.832Z,98238.45
2018-08-08T04:02:11.935Z,98252.38
2018-08-08T04:04:40.035Z,98257.67
2018-08-08T04:07:08.111Z,98257.13
2018-08-08T04:09:36.255Z,98256.94
2018-08-08T04:12:04.372Z,98262.10
2018-08-08T04:14:32.483Z,98247.31
2018-08-08T04:17:00.599Z,98248.93
2018-08-08T04:19:29.308Z,98261.80
2018-08-08T04:21:57.394Z,98253.09
2018-08-08T04:24:25.502Z,98265.03
2018-08-08T04:26:53.595Z,98274.72
2018-08-08T04:29:22.507Z,98279.36
2018-08-08T04:31:50.628Z,98279.95
2018-08-08T04:34:18.732Z,98278.83
2018-08-08T04:36:46.824Z,98278.39
2018-08-08T04:39:14.939Z,98290.76
2018-08-08T04:41:43.040Z,98298.50
2018-08-08T04:44:11.143Z,98297.50
2018-08-08T04:46:39.679Z,98288.27
2018-08-08T04:49:07.779Z,98302.59
2018-08-08T04:51:35.881Z,98301.88
2018-08-08T04:54:03.986Z,98306.94
2018-08-08T04:56:32.075Z,98317.95
2018-08-08T04:59:00.164Z,98318.77
2018-08-08T05:01:28.315Z,98328.95
2018-08-08T05:03:56.413Z,98339.39
2018-08-08T05:06:24.519Z,98354.02
2018-08-08T05:08:52.626Z,98365.19
2018-08-08T05:11:20.720Z,98374.24
2018-08-08T05:13:48.825Z,98384.16
2018-08-08T05:16:16.938Z,98381.19
2018-08-08T05:18:45.123Z,98379.39
2018-08-08T05:21:13.224Z,98390.40
2018-08-08T05:23:41.328Z,98392.97
2018-08-08T05:26:09.415Z,98394.84
2018-08-08T05:28:37.529Z,98387.08
2018-08-08T05:31:05.857Z,98392.31
2018-08-08T05:33:33.959Z,98394.77
2018-08-08T05:36:02.083Z,98406.39
2018-08-08T05:38:30.179Z,98411.03
2018-08-08T05:40:58.259Z,98406.22
2018-08-08T05:43:26.363Z,98405.67
2018-08-08T05:45:55.418Z,98410.25
2018-08-08T05:48:23.738Z,98414.93
2018-08-08T05:50:51.844Z,98416.70
2018-08-08T05:53:19.940Z,98421.33
2018-08-08T05:55:48.052Z,98420.52
2018-08-08T05:58:16.131Z,98426.92
2018-08-08T06:00:44.271Z,98433.06
2018-08-08T06:03:12.384Z,98437.83
2018-08-08T06:05:40.980Z,98442.94
2018-08-08T06:08:09.096Z,98443.70
2018-08-08T06:10:37.222Z,98451.74
2018-08-08T06:13:05.319Z,98438.30
2018-08-08T06:15:33.421Z,98438.91
2018-08-08T06:18:01.503Z,98445.40
2018-08-08T06:20:29.583Z,98445.87
2018-08-08T06:22:57.682Z,98447.34
2018-08-08T06:25:25.836Z,98453.18
2018-08-08T06:27:53.956Z,98449.89
2018-08-08T06:30:23.370Z,98448.92
2018-08-08T06:32:52.263Z,98446.14
2018-08-08T06:35:22.479Z,98430.73
2018-08-08T06:37:50.833Z,98432.23
2018-08-08T06:40:19.573Z,98408.80
2018-08-08T06:42:47.683Z,98385.70
2018-08-08T06:45:18.148Z,98394.05
2018-08-08T06:47:46.357Z,98406.02
2018-08-08T06:50:15.011Z,98406.91
2018-08-08T06:52:43.102Z,98407.58
2018-08-08T06:55:13.835Z,98399.99
2018-08-08T06:57:42.076Z,98408.92
2018-08-08T07:00:20.603Z,98405.22
2018-08-08T07:02:48.728Z,98403.75
2018-08-08T07:05:17.932Z,98384.14
2018-08-08T07:07:46.390Z,98372.19
2018-08-08T07:10:14.483Z,98364.55
2018-08-08T07:12:42.603Z,98360.84
2018-08-08T07:15:12.437Z,98359.16
2018-08-08T07:17:40.611Z,98346.75
2018-08-08T07:20:10.263Z,98357.64
2018-08-08T07:22:38.452Z,98372.44
2018-08-08T07:25:08.646Z,98392.22
2018-08-08T07:27:36.976Z,98399.06
2018-08-08T07:30:07.732Z,98406.13
2018-08-08T07:32:36.011Z,98425.71
2018-08-08T07:35:04.851Z,98443.14
2018-08-08T07:37:32.979Z,98453.98
2018-08-08T07:40:01.095Z,98464.55
2018-08-08T07:42:29.200Z,98467.78
2018-08-08T07:44:57.289Z,98459.92
2018-08-08T07:47:25.581Z,98464.73
2018-08-08T07:49:53.976Z,98471.07
2018-08-08T07:52:22.089Z,98464.80
2018-08-08T07:54:50.222Z,98480.52
2018-08-08T07:57:18.562Z,98482.16
2018-08-08T07:59:46.840Z,98479.31
2018-08-08T08:02:14.994Z,98467.85
2018-08-08T08:04:43.484Z,98479.06
2018-08-08T08:07:11.563Z,98494.55
2018-08-08T08:09:39.667Z,98490.55
2018-08-08T08:12:07.763Z,98489.84
2018-08-08T08:14:35.870Z,98489.42
2018-08-08T08:17:04.015Z,98486.58
2018-08-08T08:19:32.268Z,98483.71
2018-08-08T08:22:00.367Z,98480.36
2018-08-08T08:24:28.508Z,98482.19
2018-08-08T08:26:56.603Z,98474.52
2018-08-08T08:29:24.745Z,98480.88
2018-08-08T08:31:52.936Z,98474.94
2018-08-08T08:34:21.035Z,98472.02
2018-08-08T08:36:49.181Z,98472.92
2018-08-08T08:39:17.263Z,98467.14
2018-08-08T08:41:45.354Z,98462.83
2018-08-08T08:44:13.439Z,98460.42
2018-08-08T08:46:41.979Z,98469.95
2018-08-08T08:49:10.051Z,98472.55
2018-08-08T08:51:38.151Z,98462.55
2018-08-08T08:54:06.246Z,98463.88
2018-08-08T08:56:34.331Z,98461.78
2018-08-08T08:59:02.745Z,98463.30
2018-08-08T09:01:31.375Z,98460.63
2018-08-08T09:03:59.461Z,98457.77
2018-08-08T09:06:27.550Z,98449.08
2018-08-08T09:08:55.654Z,98447.88
2018-08-08T09:11:23.751Z,98447.19
2018-08-08T09:13:52.710Z,98435.73
2018-08-08T09:16:20.786Z,98433.52
2018-08-08T09:18:48.883Z,98438.30
2018-08-08T09:21:16.964Z,98436.08
2018-08-08T09:23:45.074Z,98427.39
2018-08-08T09:26:13.159Z,98423.59
2018-08-08T09:28:41.257Z,98422.19
2018-08-08T09:31:09.344Z,98413.80
2018-08-08T09:33:37.452Z,98415.09
2018-08-08T09:36:06.083Z,98408.06
2018-08-08T09:38:34.192Z,98420.98
2018-08-08T09:41:02.387Z,98421.27
2018-08-08T09:43:31.059Z,98420.50
2018-08-08T09:48:33.516Z,98417.03
2018-08-08T09:51:01.661Z,98420.11
2018-08-08T09:53:29.757Z,98418.44
2018-08-08T09:55:57.840Z,98397.02
2018-08-08T09:58:25.952Z,98402.30
2018-08-08T10:00:59.313Z,98399.38
2018-08-08T10:03:32.924Z,98391.36
2018-08-08T10:06:01.011Z,98397.58
2018-08-08T10:08:29.198Z,98395.73
2018-08-08T10:10:57.618Z,98387.57
2018-08-08T10:13:25.708Z,98395.50
2018-08-08T10:15:53.818Z,98393.12
2018-08-08T10:18:21.928Z,98399.87
2018-08-08T10:20:50.058Z,98405.23
2018-08-08T10:23:18.150Z,98399.61
2018-08-08T10:25:46.269Z,98402.90
2018-08-08T10:28:14.347Z,98404.41
2018-08-08T10:30:42.444Z,98410.70
2018-08-08T10:33:10.523Z,98403.90
2018-08-08T10:35:38.631Z,98400.91
2018-08-08T10:38:07.842Z,98405.27
2018-08-08T10:40:35.944Z,98404.99
2018-08-08T10:43:04.312Z,98404.16
2018-08-08T10:45:32.398Z,98400.84
2018-08-08T10:48:00.484Z,98402.78
2018-08-08T10:50:28.816Z,98410.69
2018-08-08T10:52:56.911Z,98413.70
2018-08-08T10:55:25.035Z,98411.49
2018-08-08T10:57:53.136Z,98419.13
2018-08-08T11:00:21.227Z,98414.78
2018-08-08T11:02:49.312Z,98414.77
2018-08-08T11:05:17.388Z,98413.16
2018-08-08T11:07:45.548Z,98414.28
2018-08-08T11:10:13.628Z,98403.61
2018-08-08T11:12:41.723Z,98410.20
2018-08-08T11:15:09.827Z,98411.00
2018-08-08T11:17:38.763Z,98407.99
2018-08-08T11:20:06.907Z,98402.52
2018-08-08T11:22:35.011Z,98409.91
2018-08-08T11:25:03.114Z,98406.91
2018-08-08T11:27:31.216Z,98403.65
2018-08-08T11:29:59.333Z,98405.05
2018-08-08T11:32:27.435Z,98400.87
2018-08-08T11:34:55.519Z,98410.47
2018-08-08T11:37:23.628Z,98412.06
2018-08-08T11:39:51.718Z,98406.56
2018-08-08T11:42:19.825Z,98413.52
2018-08-08T11:44:47.901Z,98412.70
2018-08-08T11:47:15.995Z,98414.17
2018-08-08T11:49:44.127Z,98411.53
2018-08-08T11:52:12.305Z,98414.50
2018-08-08T11:54:40.326Z,98408.77
2018-08-08T11:57:08.468Z,98415.62
2018-08-08T11:59:36.575Z,98404.11
2018-08-08T12:02:04.686Z,98409.35
2018-08-08T12:04:33.072Z,98406.62
2018-08-08T12:07:01.188Z,98405.80
2018-08-08T12:09:29.289Z,98394.36
2018-08-08T12:11:57.375Z,98399.23
2018-08-08T12:14:25.456Z,98398.03
2018-08-08T12:16:53.571Z,98408.68
2018-08-08T12:19:21.664Z,98411.52
2018-08-08T12:21:49.820Z,98404.78
2018-08-08T12:24:17.841Z,98404.74
2018-08-08T12:26:46.025Z,98423.22
2018-08-08T12:29:14.120Z,98419.63
2018-08-08T12:31:42.211Z,98413.85
2018-08-08T12:34:10.956Z,98413.77
2018-08-08T12:36:39.086Z,98407.92
2018-08-08T12:39:09.179Z,98406.56
2018-08-08T12:41:37.218Z,98408.61
2018-08-08T12:44:05.323Z,98417.47
2018-08-08T12:46:33.419Z,98418.23
2018-08-08T12:49:01.757Z,98417.12
2018-08-08T12:51:29.867Z,98420.20
2018-08-08T12:53:57.958Z,98416.53
2018-08-08T12:56:26.090Z,98421.37
2018-08-08T12:58:54.187Z,98414.25
2018-08-08T13:01:22.290Z,98416.11
2018-08-08T13:03:50.377Z,98410.65
2018-08-08T13:06:18.525Z,98404.53
2018-08-08T13:08:46.644Z,98404.09
2018-08-08T13:11:14.808Z,98409.78
2018-08-08T13:13:42.905Z,98410.08
2018-08-08T13:16:11.122Z,98406.23
2018-08-08T13:18:39.200Z,98402.66
2018-08-08T13:21:07.482Z,98400.59
2018-08-08T13:23:35.583Z,98404.66
2018-08-08T13:26:03.682Z,98416.41
2018-08-08T13:28:32.134Z,98413.66
2018-08-08T13:31:00.334Z,98412.09
2018-08-08T13:33:28.379Z,98403.22
2018-08-08T13:35:56.501Z,98416.51
2018-08-08T13:38:24.579Z,98430.00
2018-08-08T13:40:52.675Z,98441.41
2018-08-08T13:43:20.777Z,98436.67
2018-08-08T13:45:48.953Z,98439.55
2018-08-08T13:48:16.973Z,98432.98
2018-08-08T13:50:45.128Z,98422.69
2018-08-08T13:53:13.576Z,98423.79
2018-08-08T13:55:41.664Z,98422.45
2018-08-08T13:58:09.766Z,98438.92
2018-08-08T14:00:37.855Z,98453.72
2018-08-08T14:03:05.972Z,98447.53
2018-08-08T14:05:34.040Z,98461.77
2018-08-08T14:08:02.176Z,98467.16
2018-08-08T14:10:30.277Z,98473.59
2018-08-08T14:12:58.354Z,98481.41
2018-08-08T14:15:26.451Z,98488.82
2018-08-08T14:17:54.530Z,98506.04
2018-08-08T14:20:22.647Z,98518.30
2018-08-08T14:22:50.756Z,98537.42
2018-08-08T14:25:18.860Z,98512.62
2018-08-08T14:27:46.940Z,98510.09
2018-08-08T14:30:15.063Z,98517.47
2018-08-08T14:32:43.143Z,98510.72
2018-08-08T14:37:38.419Z,98511.80
2018-08-08T14:40:06.671Z,98494.19
2018-08-08T14:42:34.759Z,98480.47
2018-08-08T14:45:02.868Z,98481.19
2018-08-08T14:47:30.952Z,98479.65
2018-08-08T14:49:59.310Z,98479.53
2018-08-08T14:52:27.406Z,98462.65
2018-08-08T14:54:55.552Z,98453.08
2018-08-08T14:57:23.659Z,98440.55
2018-08-08T14:59:51.768Z,98437.80
2018-08-08T15:02:19.845Z,98424.03
2018-08-08T15:04:47.945Z,98426.28
2018-08-08T15:07:16.050Z,98426.17
2018-08-08T15:09:44.136Z,98439.18
2018-08-08T15:12:12.607Z,98445.02
2018-08-08T15:14:40.713Z,98455.40
2018-08-08T15:17:08.819Z,98448.59
2018-08-08T15:19:36.940Z,98450.81
2018-08-08T15:22:05.048Z,98442.59
2018-08-08T15:24:33.141Z,98437.42
2018-08-08T15:27:01.241Z,98434.59
2018-08-08T15:29:29.412Z,98439.10
2018-08-08T15:31:57.542Z,98437.34
2018-08-08T15:34:25.903Z,98434.71
2018-08-08T15:36:54.097Z,98434.71
2018-08-08T15:39:22.089Z,98432.94
2018-08-08T15:41:50.188Z,98431.14
2018-08-08T15:44:18.271Z,98423.77
2018-08-08T15:46:47.120Z,98415.56
2018-08-08T15:49:15.231Z,98415.39
2018-08-08T15:51:43.372Z,98409.41
2018-08-08T15:54:11.424Z,98402.59
2018-08-08T15:56:39.534Z,98402.80
2018-08-08T15:59:07.623Z,98401.97
2018-08-08T16:01:35.728Z,98399.73
2018-08-08T16:04:03.813Z,98406.75
2018-08-08T16:06:31.905Z,98402.31
2018-08-08T16:08:59.987Z,98405.25
2018-08-08T16:11:28.089Z,98400.37
2018-08-08T16:13:56.158Z,98403.52
2018-08-08T16:16:25.012Z,98402.72
2018-08-08T16:18:53.095Z,98408.98
2018-08-08T16:21:21.344Z,98409.23
2018-08-08T16:23:49.423Z,98408.45
2018-08-08T16:26:18.561Z,98407.87
2018-08-08T16:28:46.659Z,98408.13
2018-08-08T16:31:14.775Z,98406.53
2018-08-08T16:33:42.853Z,98400.55
2018-08-08T16:36:10.934Z,98398.79
2018-08-08T16:38:39.023Z,98392.55
2018-08-08T16:41:07.363Z,98401.83
2018-08-08T16:43:35.547Z,98400.55
2018-08-08T16:46:03.640Z,98397.13
2018-08-08T16:48:31.783Z,98402.80
2018-08-08T16:50:59.930Z,98404.66
2018-08-08T16:53:28.306Z,98404.80
2018-08-08T16:55:56.491Z,98402.37
2018-08-08T16:58:24.557Z,98400.17
2018-08-08T17:00:52.657Z,98401.56
2018-08-08T17:03:20.743Z,98400.04
2018-08-08T17:05:48.951Z,98405.80
2018-08-08T17:08:17.102Z,98404.25
2018-08-08T17:10:45.182Z,98410.62
2018-08-08T17:13:13.269Z,98411.70
2018-08-08T17:15:41.352Z,98408.94
2018-08-08T17:18:09.464Z,98406.18
2018-08-08T17:20:37.618Z,98406.45
2018-08-08T17:23:05.656Z,98415.02
2018-08-08T17:25:34.043Z,98411.81
2018-08-08T17:28:02.125Z,98422.96
2018-08-08T17:30:30.209Z,98420.86
2018-08-08T17:32:58.423Z,98424.55
2018-08-08T17:35:26.766Z,98427.48
2018-08-08T17:37:54.864Z,98422.19
2018-08-08T17:40:22.952Z,98427.06
2018-08-08T17:42:51.114Z,98425.72
2018-08-08T17:45:19.342Z,98426.28
2018-08-08T17:47:47.445Z,98431.77
2018-08-08T17:50:15.585Z,98434.56
2018-08-08T17:52:43.653Z,98436.59
2018-08-08T17:55:11.731Z,98435.88
2018-08-08T17:57:40.042Z,98435.79
2018-08-08T18:00:08.152Z,98440.98
2018-08-08T18:02:36.253Z,98442.27
2018-08-08T18:05:05.151Z,98446.50
2018-08-08T18:07:33.291Z,98458.97
2018-08-08T18:10:01.463Z,98457.95
2018-08-08T18:12:30.139Z,98447.85
2018-08-08T18:14:58.222Z,98452.59
2018-08-08T18:17:26.338Z,98452.13
2018-08-08T18:19:54.540Z,98453.66
2018-08-08T18:22:22.686Z,98450.44
2018-08-08T18:24:51.257Z,98458.66
2018-08-08T18:27:24.780Z,98458.72
2018-08-08T18:29:55.274Z,98465.23
2018-08-08T18:32:23.411Z,98464.16
2018-08-08T18:34:51.859Z,98468.63
2018-08-08T18:37:19.960Z,98473.34
2018-08-08T18:39:48.065Z,98477.64
2018-08-08T18:42:16.171Z,98480.36
2018-08-08T18:44:44.326Z,98476.13
2018-08-08T18:47:12.428Z,98478.90
2018-08-08T18:49:40.516Z,98488.52
2018-08-08T18:52:08.618Z,98495.54
2018-08-08T18:54:36.791Z,98490.55
2018-08-08T18:57:04.918Z,98492.58
2018-08-08T18:59:33.765Z,98489.59
2018-08-08T19:02:01.801Z,98487.89
2018-08-08T19:04:30.363Z,98481.77
2018-08-08T19:06:58.555Z,98480.58
2018-08-08T19:09:26.939Z,98480.89
2018-08-08T19:11:55.056Z,98488.62
2018-08-08T19:14:23.183Z,98488.34
2018-08-08T19:16:51.300Z,98492.78
2018-08-08T19:19:19.887Z,98503.28
2018-08-08T19:21:48.997Z,98504.42
2018-08-08T19:24:17.101Z,98508.56
2018-08-08T19:26:45.991Z,98510.61
2018-08-08T19:29:14.092Z,98520.26
2018-08-08T19:31:42.192Z,98525.02
2018-08-08T19:34:10.355Z,98525.48
2018-08-08T19:36:38.776Z,98525.03
2018-08-08T19:39:08.700Z,98521.83
2018-08-08T19:41:37.215Z,98526.52
2018-08-08T19:44:06.025Z,98522.72
2018-08-08T19:46:34.114Z,98525.27
2018-08-08T19:49:02.518Z,98524.89
2018-08-08T19:51:30.638Z,98527.64
2018-08-08T19:53:58.723Z,98532.72
2018-08-08T19:56:27.704Z,98532.16
2018-08-08T19:58:55.804Z,98533.33
2018-08-08T20:01:24.882Z,98541.81
2018-08-08T20:03:53.005Z,98539.34
2018-08-08T20:06:21.166Z,98539.07
2018-08-08T20:08:49.303Z,98537.61
2018-08-08T20:11:17.429Z,98541.97
2018-08-08T20:13:45.788Z,98549.74
2018-08-08T20:16:13.899Z,98556.45
2018-08-08T20:18:42.011Z,98558.88
2018-08-08T20:21:10.089Z,98557.73
2018-08-08T20:23:38.179Z,98555.68
2018-08-08T20:26:06.991Z,98562.30
2018-08-08T20:28:35.142Z,98571.37
2018-08-08T20:31:03.243Z,98572.10
2018-08-08T20:33:31.612Z,98563.67
2018-08-08T20:35:59.691Z,98565.97
2018-08-08T20:38:27.763Z,98561.27
2018-08-08T20:40:55.914Z,98562.38
2018-08-08T20:43:24.176Z,98566.92
2018-08-08T20:45:52.306Z,98561.05
2018-08-08T20:48:20.404Z,98555.00
2018-08-08T20:50:48.541Z,98560.64
2018-08-08T20:53:16.639Z,98554.78
2018-08-08T20:55:44.769Z,98561.03
2018-08-08T20:58:12.848Z,98566.36
2018-08-08T21:00:40.928Z,98563.01
2018-08-08T21:03:09.022Z,98562.89
2018-08-08T21:05:38.097Z,98564.34
2018-08-08T21:08:06.205Z,98566.59
2018-08-08T21:10:34.360Z,98568.22
2018-08-08T21:13:02.448Z,98569.00
2018-08-08T21:15:30.535Z,98569.22
2018-08-08T21:17:59.035Z,98572.52
2018-08-08T21:20:27.132Z,98566.64
2018-08-08T21:22:55.231Z,98572.62
2018-08-08T21:25:23.379Z,98576.11
2018-08-08T21:27:51.475Z,98570.34
2018-08-08T21:30:19.655Z,98562.38
2018-08-08T21:32:47.677Z,98558.06
2018-08-08T21:35:15.775Z,98558.28
2018-08-08T21:37:43.884Z,98559.98
2018-08-08T21:40:12.022Z,98557.22
2018-08-08T21:42:40.137Z,98556.28
2018-08-08T21:45:09.232Z,98552.08
2018-08-08T21:47:37.415Z,98555.52
2018-08-08T21:50:05.844Z,98562.05
2018-08-08T21:52:33.996Z,98558.13
2018-08-08T21:55:13.511Z,98556.86
2018-08-08T21:57:53.191Z,98566.08
2018-08-08T22:02:55.567Z,98570.51
2018-08-08T22:05:36.264Z,98569.09
2018-08-08T22:08:15.921Z,98568.69
2018-08-08T22:10:56.098Z,98572.10
2018-08-08T22:13:35.476Z,98582.95
2018-08-08T22:16:14.923Z,98575.62
2018-08-08T22:18:54.456Z,98582.03
2018-08-08T22:21:22.555Z,98583.26
2018-08-08T22:23:50.639Z,98579.56
2018-08-08T22:26:18.775Z,98578.54
2018-08-08T22:28:47.187Z,98575.23
2018-08-08T22:31:15.304Z,98572.95
2018-08-08T22:33:43.402Z,98573.81
2018-08-08T22:36:11.505Z,98571.13
2018-08-08T22:38:46.469Z,98569.69
2018-08-08T22:41:14.584Z,98556.86
2018-08-08T22:43:43.123Z,98559.55
2018-08-08T22:46:11.216Z,98568.67
2018-08-08T22:48:39.440Z,98571.44
2018-08-08T22:51:07.537Z,98567.81
2018-08-08T22:53:35.940Z,98565.05
2018-08-08T22:56:04.099Z,98554.83
2018-08-08T22:58:32.172Z,98552.98
2018-08-08T23:01:00.242Z,98548.44
2018-08-08T23:03:29.108Z,98553.66
2018-08-08T23:05:57.192Z,98554.80
2018-08-08T23:08:25.305Z,98560.69
2018-08-08T23:10:53.425Z,98566.66
2018-08-08T23:13:21.516Z,98559.86
2018-08-08T23:15:49.633Z,98560.66
2018-08-08T23:18:17.726Z,98559.63
2018-08-08T23:20:45.961Z,98554.77
2018-08-08T23:23:14.048Z,98550.36
2018-08-08T23:25:42.173Z,98547.75
2018-08-08T23:28:10.326Z,98544.23
2018-08-08T23:30:38.660Z,98541.05
2018-08-08T23:33:07.025Z,98540.31
2018-08-08T23:35:35.275Z,98534.33
2018-08-08T23:38:03.382Z,98531.56
2018-08-08T23:40:31.467Z,98528.67
2018-08-08T23:42:59.555Z,98531.64
2018-08-08T23:45:27.630Z,98528.67
2018-08-08T23:47:55.724Z,98526.20
2018-08-08T23:50:23.812Z,98522.20
2018-08-08T23:52:51.891Z,98528.27
2018-08-08T23:55:20.299Z,98529.31
2018-08-08T23:57:48.400Z,98526.82
